Time;durP1;ratioP1;P1;durP2;ratioP2;P2;SDS_P1;SDS_P2;PMS_P1;PMS_P2;Temp;Humidity;BMP_temperature;BMP_pressure;BME280_temperature;BME280_humidity;BME280_pressure;Samples;Min_cycle;Max_cycle;Signal;HPM_P1;HPM_P2
2023/05/31 03:57:05;;;;;;;4.95;3.28;;;;;;;17.59;74.31;100654.75;6562074;27;20373;-83
2023/05/31 04:00:12;;;;;;;5.47;3.55;;;;;;;17.65;74.52;100653.06;6605712;27;33512;-83
2023/05/31 04:03:15;;;;;;;6.78;3.55;;;;;;;17.70;74.37;100661.41;6569689;27;34783;-83
2023/05/31 04:06:18;;;;;;;5.95;3.40;;;;;;;17.82;73.86;100667.87;6605983;27;34456;-86
2023/05/31 04:09:23;;;;;;;5.87;3.33;;;;;;;17.89;73.95;100660.47;6586141;27;33705;-86
2023/05/31 04:12:26;;;;;;;4.45;3.45;;;;;;;17.96;71.65;100662.31;6586651;27;33932;-87
2023/05/31 04:15:30;;;;;;;4.55;3.12;;;;;;;18.03;71.76;100668.56;6587583;27;33331;-84
2023/05/31 04:18:33;;;;;;;6.30;3.22;;;;;;;18.12;71.32;100672.69;6607955;27;33313;-83
2023/05/31 04:21:37;;;;;;;6.70;3.20;;;;;;;18.19;70.85;100670.75;6571025;27;34445;-83
2023/05/31 04:24:40;;;;;;;5.45;3.47;;;;;;;18.24;70.42;100678.28;6588557;27;33156;-83
2023/05/31 04:27:43;;;;;;;7.18;3.10;;;;;;;18.22;70.43;100683.97;6570456;27;34885;-83
2023/05/31 04:30:47;;;;;;;11.48;3.22;;;;;;;18.23;69.86;100691.06;6589593;27;34735;-82
2023/05/31 04:33:53;;;;;;;6.50;3.50;;;;;;;18.31;69.80;100688.09;6580573;27;33843;-83
2023/05/31 04:36:56;;;;;;;6.43;3.25;;;;;;;18.31;69.39;100688.09;6626652;26;33425;-83
2023/05/31 04:40:00;;;;;;;6.28;3.55;;;;;;;18.28;69.05;100693.12;6620681;27;35065;-83
2023/05/31 04:43:05;;;;;;;6.30;3.70;;;;;;;18.31;69.89;100690.81;6591257;27;34779;-82
2023/05/31 04:46:09;;;;;;;6.57;3.30;;;;;;;18.42;69.24;100691.13;6591058;27;34340;-82
2023/05/31 04:49:12;;;;;;;5.93;3.53;;;;;;;18.51;69.15;100695.25;6606959;27;33845;-82
2023/05/31 04:52:15;;;;;;;5.75;3.40;;;;;;;18.38;69.81;100695.38;6586530;27;33721;-82
2023/05/31 04:55:18;;;;;;;6.53;3.60;;;;;;;18.38;69.25;100696.19;6605200;26;34411;-82
2023/05/31 04:58:21;;;;;;;5.82;3.33;;;;;;;18.38;69.25;100693.47;6617480;26;33529;-82
2023/05/31 05:01:24;;;;;;;8.10;3.62;;;;;;;18.31;68.94;100703.56;6617931;26;34595;-82
2023/05/31 05:04:27;;;;;;;7.37;3.30;;;;;;;18.31;70.22;100700.84;6620219;26;33788;-82
2023/05/31 05:07:30;;;;;;;6.18;3.40;;;;;;;18.37;69.78;100697.28;6597791;26;34681;-83
2023/05/31 05:10:33;;;;;;;4.28;3.42;;;;;;;18.36;69.63;100709.22;6618027;26;33641;-83
2023/05/31 05:13:36;;;;;;;6.03;2.95;;;;;;;18.54;68.66;100711.16;6598314;26;33257;-83
2023/05/31 05:16:57;;;;;;;6.97;3.60;;;;;;;18.75;66.72;100702.63;6584110;26;34229;-83
2023/05/31 05:20:13;;;;;;;6.62;3.35;;;;;;;18.82;67.34;100704.47;6594959;26;34661;-83
2023/05/31 05:23:22;;;;;;;5.82;3.67;;;;;;;18.79;66.57;100712.03;6598865;26;34347;-83
2023/05/31 05:26:44;;;;;;;9.05;3.42;;;;;;;18.90;66.48;100706.91;6600769;26;34934;-83
2023/05/31 05:30:00;;;;;;;9.30;3.42;;;;;;;18.92;65.78;100707.50;6599089;26;33593;-86
2023/05/31 05:33:21;;;;;;;10.85;3.47;;;;;;;18.88;66.02;100706.28;6615852;26;33516;-83
2023/05/31 05:36:42;;;;;;;7.22;3.22;;;;;;;18.79;66.81;100703.84;6633183;26;33549;-83
2023/05/31 05:40:06;;;;;;;7.85;3.55;;;;;;;18.77;66.84;100708.69;6586067;26;34556;-83
2023/05/31 05:43:17;;;;;;;4.57;3.20;;;;;;;18.72;66.23;100713.97;6614829;26;33640;-83
2023/05/31 05:46:34;;;;;;;6.37;3.45;;;;;;;18.69;66.79;100708.97;6599091;26;34356;-83
2023/05/31 05:49:55;;;;;;;4.90;2.95;;;;;;;18.77;66.96;100716.88;6600730;26;34043;-83
2023/05/31 05:53:24;;;;;;;;;;;;;;;18.97;65.67;100719.41;6612363;26;33536;-83
2023/05/31 05:56:39;;;;;;;5.93;3.33;;;;;;;19.09;65.14;100716.78;6649230;26;34687;-83
2023/05/31 05:59:54;;;;;;;8.55;3.90;;;;;;;19.45;65.17;100717.84;6632080;26;35044;-88
2023/05/31 06:03:13;;;;;;;5.10;3.27;;;;;;;19.63;64.43;100723.31;6614599;26;33915;-84
2023/05/31 06:06:31;;;;;;;7.40;3.67;;;;;;;19.76;63.50;100719.59;6598410;26;34310;-84
2023/05/31 06:09:50;;;;;;;8.02;3.92;;;;;;;19.81;63.05;100719.75;6599663;26;33404;-84
2023/05/31 06:12:58;;;;;;;7.40;2.92;;;;;;;19.94;63.49;100727.75;6613543;26;34277;-84
2023/05/31 06:16:08;;;;;;;7.53;3.65;;;;;;;20.37;61.28;100720.44;6594198;26;34418;-84
2023/05/31 06:19:21;;;;;;;5.22;3.37;;;;;;;20.52;60.71;100726.31;6614178;26;34043;-84
2023/05/31 06:22:39;;;;;;;6.10;3.62;;;;;;;20.53;60.44;100729.88;6598005;26;34216;-84
2023/05/31 06:25:48;;;;;;;10.15;3.83;;;;;;;20.89;60.08;100728.03;6613943;26;33497;-84
2023/05/31 06:29:07;;;;;;;8.20;3.10;;;;;;;21.21;58.08;100725.75;6611309;26;33794;-84
2023/05/31 06:32:17;;;;;;;5.12;3.00;;;;;;;21.23;58.05;100737.28;6632377;26;33226;-84
2023/05/31 06:35:40;;;;;;;12.15;3.37;;;;;;;21.21;57.21;100734.81;6604537;26;33917;-84
2023/05/31 06:38:56;;;;;;;9.00;3.67;;;;;;;21.13;57.72;100729.69;6632211;26;34239;-89
2023/05/31 06:42:15;;;;;;;5.45;2.97;;;;;;;20.92;58.58;100733.03;6614942;26;33674;-84
2023/05/31 06:45:30;;;;;;;6.75;3.42;;;;;;;21.22;57.91;100733.72;6613424;26;33937;-84
2023/05/31 06:48:51;;;;;;;7.72;3.67;;;;;;;21.65;57.00;100726.19;6631355;26;33680;-84
2023/05/31 06:52:31;;;;;;;4.30;3.17;;;;;;;21.73;56.39;100725.78;6612534;26;33560;-84
2023/05/31 06:55:57;;;;;;;5.30;3.12;;;;;;;21.70;56.03;100729.00;6628615;26;33936;-84
2023/05/31 06:59:13;;;;;;;10.88;3.00;;;;;;;21.92;55.24;100726.44;6584810;26;34627;-84
2023/05/31 07:02:38;;;;;;;8.13;3.58;;;;;;;21.84;55.36;100726.81;6635281;26;33246;-84
2023/05/31 07:05:57;;;;;;;4.57;3.42;;;;;;;21.74;56.12;100721.97;6619553;26;34275;-84
2023/05/31 07:09:09;;;;;;;4.07;2.97;;;;;;;22.11;55.86;100730.66;6599473;26;34728;-84
2023/05/31 07:12:28;;;;;;;8.23;3.45;;;;;;;22.12;55.15;100721.34;6599324;26;33936;-84
2023/05/31 07:15:52;;;;;;;9.18;3.20;;;;;;;22.34;54.50;100726.97;6614516;26;34741;-85
2023/05/31 07:19:00;;;;;;;6.12;2.78;;;;;;;22.61;52.57;100729.91;6576722;26;33735;-84
2023/05/31 07:22:22;;;;;;;6.37;3.30;;;;;;;22.77;51.58;100731.00;6654932;26;33921;-85
2023/05/31 07:25:48;;;;;;;7.15;3.03;;;;;;;22.70;47.49;100733.09;6639502;26;35197;-84
2023/05/31 07:29:09;;;;;;;9.50;3.47;;;;;;;23.01;46.96;100733.56;6615867;26;33735;-87
2023/05/31 07:32:27;;;;;;;8.20;3.20;;;;;;;23.06;46.35;100730.91;6610966;26;33844;-87
2023/05/31 07:35:40;;;;;;;21.02;3.70;;;;;;;23.36;47.56;100736.00;6613785;26;33574;-91
2023/05/31 07:38:53;;;;;;;6.60;3.37;;;;;;;23.51;46.08;100730.69;6580647;26;33630;-86
2023/05/31 07:42:01;;;;;;;4.20;2.92;;;;;;;23.37;45.20;100732.19;6614273;26;33656;-87
2023/05/31 07:45:15;;;;;;;6.12;2.87;;;;;;;23.35;44.41;100734.34;6561754;26;34852;-85
2023/05/31 07:48:28;;;;;;;5.47;2.87;;;;;;;23.49;45.19;100734.81;6613946;26;34165;-86
2023/05/31 07:51:55;;;;;;;;;;;;;;;23.38;43.72;100728.34;6616602;26;34918;-86
2023/05/31 07:55:06;;;;;;;5.03;2.70;;;;;;;23.54;44.53;100732.13;6614758;26;33643;-86
2023/05/31 07:58:25;;;;;;;6.00;3.03;;;;;;;23.71;43.63;100735.66;6614270;26;33733;-86
2023/05/31 08:01:38;;;;;;;4.47;2.90;;;;;;;23.88;43.71;100732.84;6612786;26;33356;-86
2023/05/31 08:05:04;;;;;;;3.70;2.95;;;;;;;23.63;42.88;100724.25;6631532;26;34355;-86
2023/05/31 08:08:22;;;;;;;;;;;;;;;23.98;43.94;100724.72;6614886;26;33593;-86
2023/05/31 08:11:31;;;;;;;3.85;2.87;;;;;;;24.10;42.73;100727.31;6630964;26;33522;-90
2023/05/31 08:14:49;;;;;;;6.43;2.90;;;;;;;24.14;42.57;100728.44;6614790;26;34349;-86
2023/05/31 08:18:11;;;;;;;3.95;2.75;;;;;;;24.50;42.79;100734.31;6616079;26;34949;-86
2023/05/31 08:21:36;;;;;;;3.90;3.00;;;;;;;24.52;41.27;100732.16;6610748;26;34977;-86
2023/05/31 08:24:58;;;;;;;5.68;2.87;;;;;;;24.40;42.40;100732.28;6626047;26;35213;-86
2023/05/31 08:28:16;;;;;;;5.15;2.97;;;;;;;24.16;42.12;100740.03;6633165;26;34055;-86
2023/05/31 08:31:31;;;;;;;10.18;2.70;;;;;;;24.42;42.05;100735.66;6610359;26;33819;-86
2023/05/31 08:35:08;;;;;;;5.50;3.00;;;;;;;24.57;42.01;100728.59;6616086;26;35089;-86
2023/05/31 08:38:22;;;;;;;4.45;3.10;;;;;;;24.27;42.14;100726.38;6615151;26;33605;-91
2023/05/31 08:41:35;;;;;;;5.20;3.28;;;;;;;24.63;41.75;100731.16;6594644;26;34125;-91
2023/05/31 08:44:44;;;;;;;5.75;2.87;;;;;;;24.77;42.38;100726.00;6619061;26;34630;-87
2023/05/31 08:48:23;;;;;;;8.05;3.25;;;;;;;24.55;41.89;100734.38;6631426;26;33535;-87
2023/05/31 08:51:48;;;;;;;4.40;3.05;;;;;;;24.83;42.96;100727.72;6633490;26;33604;-86
2023/05/31 08:55:12;;;;;;;5.35;2.78;;;;;;;25.04;40.96;100731.44;6632634;26;34869;-86
2023/05/31 08:58:20;;;;;;;4.97;2.95;;;;;;;24.98;41.15;100724.25;6618054;26;35141;-87
2023/05/31 09:01:25;;;;;;;7.30;3.00;;;;;;;25.02;41.14;100733.62;6635029;26;33577;-86
2023/05/31 09:04:28;;;;;;;5.30;2.72;;;;;;;24.96;42.44;100728.34;6639833;26;33795;-86
2023/05/31 09:07:31;;;;;;;5.12;2.58;;;;;;;24.96;42.26;100729.19;6616577;26;33815;-86
2023/05/31 09:10:34;;;;;;;8.25;3.25;;;;;;;25.34;41.01;100732.75;6617439;26;33302;-86
2023/05/31 09:13:37;;;;;;;6.00;3.10;;;;;;;25.14;42.69;100719.69;6613021;26;33572;-86
2023/05/31 09:16:40;;;;;;;3.70;2.80;;;;;;;25.45;41.33;100717.94;6613814;26;34355;-87
2023/05/31 09:19:54;;;;;;;7.28;3.20;;;;;;;25.57;41.26;100723.22;6613379;26;33634;-86
2023/05/31 09:23:02;;;;;;;6.75;2.97;;;;;;;25.75;40.67;100713.62;6632241;26;33641;-87
2023/05/31 09:26:08;;;;;;;5.20;3.33;;;;;;;25.34;41.08;100719.78;6638886;26;33770;-86
2023/05/31 09:29:10;;;;;;;4.28;2.70;;;;;;;25.45;42.19;100715.16;6597677;26;35124;-90
2023/05/31 09:32:13;;;;;;;4.20;2.92;;;;;;;25.69;41.46;100723.81;6635629;26;35790;-90
2023/05/31 09:35:17;;;;;;;4.72;3.00;;;;;;;25.84;40.61;100712.03;6634536;26;34022;-91
2023/05/31 09:38:20;;;;;;;6.57;2.97;;;;;;;25.96;40.86;100709.84;6577796;26;33700;-88
2023/05/31 09:41:23;;;;;;;5.28;3.30;;;;;;;26.02;40.07;100711.50;6634943;26;33772;-87
2023/05/31 09:44:30;;;;;;;7.60;3.10;;;;;;;26.38;40.31;100700.50;6634521;26;34285;-87
2023/05/31 09:47:36;;;;;;;7.00;2.70;;;;;;;26.42;39.90;100700.81;6633957;26;33428;-86
2023/05/31 09:50:39;;;;;;;6.68;3.20;;;;;;;26.50;39.72;100704.97;6613592;26;33530;-86
2023/05/31 09:53:44;;;;;;;7.62;3.45;;;;;;;26.45;40.21;100703.84;6633726;26;34382;-87
2023/05/31 09:56:47;;;;;;;6.75;3.30;;;;;;;26.84;38.31;100697.75;6593914;26;33674;-86
2023/05/31 09:59:58;;;;;;;5.30;2.75;;;;;;;26.91;38.24;100705.75;6614105;26;34053;-86
2023/05/31 10:03:02;;;;;;;5.65;2.90;;;;;;;27.07;38.59;100692.75;6599538;26;34672;-86
2023/05/31 10:06:08;;;;;;;4.40;3.20;;;;;;;27.16;39.37;100687.50;6636685;26;33155;-86
2023/05/31 10:09:11;;;;;;;5.87;2.97;;;;;;;27.28;38.50;100688.84;6636464;26;34181;-87
2023/05/31 10:12:18;;;;;;;13.52;3.65;;;;;;;27.43;38.73;100692.66;6601700;26;34036;-86
2023/05/31 10:15:26;;;;;;;5.40;3.17;;;;;;;27.83;38.27;100699.16;6633561;26;34523;-85
2023/05/31 10:18:31;;;;;;;4.85;3.25;;;;;;;27.04;38.64;100691.37;6613410;26;34520;-86
2023/05/31 10:21:39;;;;;;;5.07;3.10;;;;;;;27.57;37.69;100689.00;6630085;26;33427;-85
2023/05/31 10:25:02;;;;;;;7.67;3.20;;;;;;;28.04;37.65;100675.75;6632581;26;34375;-85
2023/05/31 10:28:12;;;;;;;6.20;3.42;;;;;;;28.31;35.98;100678.03;6610174;26;33641;-86
2023/05/31 10:31:15;;;;;;;7.87;3.62;;;;;;;28.26;36.58;100672.56;6632848;26;33712;-86
2023/05/31 10:34:23;;;;;;;4.60;3.00;;;;;;;28.13;36.25;100681.50;6613444;26;34189;-86
2023/05/31 10:37:28;;;;;;;5.00;3.40;;;;;;;28.73;36.29;100682.16;6594982;26;33601;-86
2023/05/31 10:40:42;;;;;;;7.75;3.53;;;;;;;28.33;35.65;100683.31;6634381;26;33692;-85
2023/05/31 10:43:59;;;;;;;4.12;2.83;;;;;;;28.25;35.78;100684.75;6634010;26;33312;-86
2023/05/31 10:47:07;;;;;;;5.22;3.30;;;;;;;29.06;33.60;100672.13;6626850;26;33227;-86
2023/05/31 10:50:18;;;;;;;5.85;3.03;;;;;;;28.99;34.02;100670.78;6643688;26;33809;-84
2023/05/31 10:53:21;;;;;;;5.35;2.83;;;;;;;29.58;33.59;100678.72;6648146;26;33757;-86
2023/05/31 10:56:27;;;;;;;5.72;3.00;;;;;;;29.87;33.18;100669.47;6630149;26;35094;-85
2023/05/31 10:59:41;;;;;;;5.82;3.22;;;;;;;30.34;31.87;100666.81;6635729;26;33560;-85
2023/05/31 11:02:54;;;;;;;4.35;3.00;;;;;;;30.03;32.32;100662.53;6635384;26;33863;-85
2023/05/31 11:06:03;;;;;;;6.57;3.42;;;;;;;30.86;31.40;100662.00;6621046;26;33667;-85
2023/05/31 11:09:12;;;;;;;5.90;3.10;;;;;;;30.83;30.42;100657.91;6618450;26;33270;-85
2023/05/31 11:12:31;;;;;;;6.05;3.10;;;;;;;30.55;31.20;100653.41;6638022;26;33400;-85
2023/05/31 11:15:43;;;;;;;6.05;2.90;;;;;;;30.27;31.58;100654.16;6633279;26;34050;-85
2023/05/31 11:18:46;;;;;;;6.87;3.17;;;;;;;29.63;32.94;100655.62;6632585;26;33272;-85
2023/05/31 11:21:59;;;;;;;5.65;3.30;;;;;;;29.26;33.73;100656.38;6611760;26;33163;-85
2023/05/31 11:25:01;;;;;;;3.28;2.67;;;;;;;29.32;34.28;100657.97;6633051;26;33271;-85
2023/05/31 11:28:05;;;;;;;5.20;2.97;;;;;;;30.78;32.64;100643.25;6634583;26;34994;-86
2023/05/31 11:31:14;;;;;;;4.75;2.90;;;;;;;31.64;29.43;100643.44;6631177;26;33337;-84
2023/05/31 11:34:21;;;;;;;6.65;2.80;;;;;;;33.69;27.12;100638.88;6595045;26;33540;-84
2023/05/31 11:37:29;;;;;;;3.73;2.73;;;;;;;34.07;26.04;100636.28;6634135;26;33173;-84
2023/05/31 11:40:35;;;;;;;4.95;3.40;;;;;;;31.93;28.46;100634.72;6596305;26;34311;-84
2023/05/31 11:43:39;;;;;;;5.60;3.15;;;;;;;29.87;31.16;100627.00;6613807;26;33523;-86
2023/05/31 11:46:46;;;;;;;3.95;2.72;;;;;;;29.47;33.29;100630.03;6596302;26;33637;-88
2023/05/31 11:49:49;;;;;;;4.53;2.72;;;;;;;31.33;31.57;100626.59;6614007;26;33646;-89
2023/05/31 11:52:54;;;;;;;5.78;2.60;;;;;;;34.05;27.04;100621.84;6613781;26;33449;-86
2023/05/31 11:55:59;;;;;;;6.90;3.08;;;;;;;34.08;25.96;100620.37;6614007;26;33515;-85
2023/05/31 11:59:05;;;;;;;5.03;2.53;;;;;;;34.94;25.49;100621.28;6596297;26;33605;-85
2023/05/31 12:02:09;;;;;;;4.10;2.80;;;;;;;33.74;26.22;100626.75;6616106;26;34569;-85
2023/05/31 12:05:15;;;;;;;5.40;3.05;;;;;;;31.93;28.01;100617.22;6615709;26;34244;-84
2023/05/31 12:08:18;;;;;;;6.80;2.53;;;;;;;30.26;30.30;100621.94;6635086;26;33659;-84
2023/05/31 12:11:22;;;;;;;2.85;2.60;;;;;;;29.47;31.98;100618.94;6615459;26;33798;-84
2023/05/31 12:14:26;;;;;;;5.37;2.83;;;;;;;28.93;31.99;100620.97;6598199;26;34293;-84
2023/05/31 12:17:32;;;;;;;6.93;2.85;;;;;;;28.88;32.02;100615.47;6594559;26;34371;-84
2023/05/31 12:20:35;;;;;;;5.72;2.67;;;;;;;29.76;32.52;100602.16;6616596;26;33710;-84
2023/05/31 12:24:12;;;;;;;6.35;3.30;;;;;;;33.09;26.63;100608.88;6601579;26;34325;-85
2023/05/31 12:27:27;;;;;;;3.63;2.73;;;;;;;36.08;22.62;100602.59;6638769;26;33362;-85
2023/05/31 12:30:48;;;;;;;4.65;2.90;;;;;;;38.20;20.45;100598.97;6637036;26;33640;-85
2023/05/31 12:34:13;;;;;;;5.75;2.97;;;;;;;38.82;19.91;100603.06;6636224;26;33682;-85
2023/05/31 12:37:16;;;;;;;3.47;2.90;;;;;;;40.25;18.83;100594.16;6617542;26;33632;-85
2023/05/31 12:40:20;;;;;;;4.72;2.83;;;;;;;40.03;17.97;100582.47;6615715;26;33891;-85
2023/05/31 12:43:26;;;;;;;4.85;2.85;;;;;;;41.65;16.80;100583.91;6614982;26;33633;-89
2023/05/31 12:46:37;;;;;;;3.45;2.65;;;;;;;41.60;16.46;100584.28;6614885;26;33772;-89
2023/05/31 12:49:41;;;;;;;3.22;2.55;;;;;;;39.62;17.77;100589.66;6614130;26;34560;-86
2023/05/31 12:52:55;;;;;;;4.47;2.45;;;;;;;37.58;20.34;100579.53;6597568;26;33585;-86
2023/05/31 12:55:58;;;;;;;6.97;2.95;;;;;;;36.18;21.81;100578.91;6643415;26;34330;-86
2023/05/31 12:59:00;;;;;;;4.25;2.80;;;;;;;37.28;20.03;100578.19;6653780;26;34006;-86
2023/05/31 13:02:05;;;;;;;6.85;2.97;;;;;;;39.69;18.19;100572.87;6635129;26;34141;-86
2023/05/31 13:05:08;;;;;;;3.35;2.80;;;;;;;39.50;17.79;100568.06;6620461;26;35005;-86
2023/05/31 13:08:11;;;;;;;3.03;2.30;;;;;;;40.21;16.65;100568.72;6640797;26;33937;-85
2023/05/31 13:11:17;;;;;;;5.30;2.42;;;;;;;40.07;16.93;100559.97;6597237;26;34918;-86
2023/05/31 13:14:20;;;;;;;5.72;2.70;;;;;;;41.41;15.63;100559.75;6596424;26;33189;-86
2023/05/31 13:17:27;;;;;;;3.72;2.62;;;;;;;42.26;15.82;100559.16;6614759;26;33504;-86
2023/05/31 13:20:30;;;;;;;2.83;2.55;;;;;;;43.53;14.05;100551.22;6605873;26;33184;-86
2023/05/31 13:23:33;;;;;;;3.97;2.60;;;;;;;42.75;13.58;100546.69;6632342;26;35143;-86
2023/05/31 13:26:36;;;;;;;4.25;3.00;;;;;;;43.34;13.93;100545.84;6614810;26;33373;-86
2023/05/31 13:29:39;;;;;;;3.37;2.75;;;;;;;43.07;13.59;100542.47;6633876;26;33934;-86
2023/05/31 13:32:43;;;;;;;4.03;2.17;;;;;;;43.33;13.45;100536.53;6613911;26;33494;-86
2023/05/31 13:35:45;;;;;;;3.05;2.75;;;;;;;42.96;14.25;100545.22;6597947;26;33642;-85
2023/05/31 13:38:52;;;;;;;3.40;2.67;;;;;;;42.12;14.53;100544.88;6599287;26;33592;-85
2023/05/31 13:41:56;;;;;;;3.05;2.40;;;;;;;41.58;15.43;100540.62;6615222;26;34071;-85
2023/05/31 13:44:59;;;;;;;3.75;2.65;;;;;;;42.58;15.16;100533.19;6635074;26;33747;-85
2023/05/31 13:48:02;;;;;;;2.83;2.45;;;;;;;43.06;14.35;100535.97;6614350;26;33543;-85
2023/05/31 13:51:05;;;;;;;6.12;3.10;;;;;;;42.66;14.37;100531.22;6614583;26;33590;-85
2023/05/31 13:54:08;;;;;;;6.50;2.95;;;;;;;41.57;15.48;100520.03;6614481;26;33628;-85
2023/05/31 13:57:11;;;;;;;4.97;2.67;;;;;;;42.83;14.62;100522.09;6616926;26;34401;-86
2023/05/31 14:00:14;;;;;;;4.62;2.45;;;;;;;40.27;16.57;100518.44;6597151;26;34794;-86
2023/05/31 14:03:17;;;;;;;6.85;2.60;;;;;;;39.32;17.79;100511.34;6615100;26;34676;-86
2023/05/31 14:06:21;;;;;;;5.10;3.00;;;;;;;36.95;19.72;100512.59;6614767;26;33318;-86
2023/05/31 14:09:24;;;;;;;4.47;3.25;;;;;;;35.18;21.69;100517.12;6633334;26;33541;-86
2023/05/31 14:12:27;;;;;;;3.10;2.80;;;;;;;34.12;22.72;100505.94;6614308;26;33436;-86
2023/05/31 14:15:30;;;;;;;4.72;2.87;;;;;;;33.66;22.94;100511.09;6614864;26;34639;-84
2023/05/31 14:18:33;;;;;;;6.57;3.10;;;;;;;32.66;24.16;100517.50;6613363;26;33758;-84
2023/05/31 14:21:36;;;;;;;7.57;3.70;;;;;;;32.00;24.76;100512.59;6632987;26;33150;-84
2023/05/31 14:24:42;;;;;;;5.93;3.10;;;;;;;31.04;26.40;100497.03;6596469;26;33315;-84
2023/05/31 14:27:45;;;;;;;4.90;2.87;;;;;;;30.64;27.25;100498.72;6578273;26;33816;-84
2023/05/31 14:30:48;;;;;;;3.50;3.00;;;;;;;30.50;27.81;100509.81;6595753;26;33583;-83
2023/05/31 14:33:51;;;;;;;9.55;3.35;;;;;;;30.53;27.62;100514.75;6613867;26;34382;-83
2023/05/31 14:36:54;;;;;;;5.32;3.12;;;;;;;29.68;29.28;100508.47;6595481;26;34123;-83
2023/05/31 14:39:58;;;;;;;8.27;3.17;;;;;;;29.57;28.89;100505.03;6613903;26;34392;-83
2023/05/31 14:43:00;;;;;;;3.37;3.08;;;;;;;29.55;29.26;100509.25;6595416;26;34344;-87
2023/05/31 14:46:04;;;;;;;3.72;3.30;;;;;;;29.11;29.64;100510.44;6613340;26;35157;-86
2023/05/31 14:49:07;;;;;;;4.32;3.10;;;;;;;28.96;29.88;100511.47;6599584;26;302931;-87
2023/05/31 14:52:10;;;;;;;6.03;3.30;;;;;;;28.69;30.08;100514.81;6632474;26;33127;-87
2023/05/31 14:55:13;;;;;;;6.30;3.55;;;;;;;28.29;29.74;100511.37;6600276;26;33616;-83
2023/05/31 14:58:16;;;;;;;7.28;3.30;;;;;;;28.19;30.07;100508.72;6616338;26;34003;-83
2023/05/31 15:01:20;;;;;;;5.30;3.12;;;;;;;28.40;30.03;100506.53;6599447;26;33875;-83
2023/05/31 15:04:26;;;;;;;4.28;2.95;;;;;;;28.32;29.72;100508.03;6601394;26;33803;-83
2023/05/31 15:07:28;;;;;;;4.82;3.70;;;;;;;28.18;29.76;100504.31;6634824;26;33463;-83
2023/05/31 15:10:31;;;;;;;5.70;3.45;;;;;;;28.07;30.59;100514.63;6614434;26;33640;-83
2023/05/31 15:13:34;;;;;;;5.50;3.42;;;;;;;28.05;30.32;100505.78;6613505;26;33746;-83
2023/05/31 15:16:37;;;;;;;5.62;3.17;;;;;;;27.89;29.93;100507.06;6613148;26;33517;-83
2023/05/31 15:19:40;;;;;;;3.60;3.17;;;;;;;27.64;30.06;100500.59;6612879;26;33511;-83
2023/05/31 15:22:44;;;;;;;3.35;3.05;;;;;;;27.36;30.83;100505.78;6613352;26;34257;-83
2023/05/31 15:25:46;;;;;;;5.37;3.03;;;;;;;27.27;30.78;100507.50;6612953;26;33625;-83
2023/05/31 15:28:49;;;;;;;5.80;3.10;;;;;;;27.31;30.71;100503.03;6594654;26;34963;-83
2023/05/31 15:31:55;;;;;;;6.35;3.47;;;;;;;27.17;30.95;100502.03;6632606;26;33465;-83
2023/05/31 15:34:58;;;;;;;4.60;3.42;;;;;;;27.01;31.57;100494.91;6613373;26;34070;-83
2023/05/31 15:38:01;;;;;;;4.10;3.30;;;;;;;27.00;30.89;100499.62;6633723;26;33408;-83
2023/05/31 15:41:04;;;;;;;7.57;3.47;;;;;;;26.95;30.91;100496.88;6633654;26;33622;-82
2023/05/31 15:44:07;;;;;;;4.37;3.28;;;;;;;26.68;31.41;100492.56;6633890;26;33493;-83
2023/05/31 15:47:10;;;;;;;5.35;3.25;;;;;;;26.65;31.71;100484.03;6629014;26;33539;-83
2023/05/31 15:50:13;;;;;;;4.90;3.05;;;;;;;26.52;31.72;100482.69;6636617;26;35083;-83
2023/05/31 15:53:17;;;;;;;7.40;3.40;;;;;;;26.37;31.60;100486.28;6600100;26;35102;-83
2023/05/31 15:56:20;;;;;;;4.95;3.03;;;;;;;26.28;31.27;100487.97;6633887;26;34612;-83
